sensor_id;sensor_type;location;lat;lon;timestamp;pressure;altitude;pressure_sealevel;temperature;humidity
30897;BME280;64229;52.246;21.054;2023-01-20T00:01:24;99854.16;;;1.78;100.00
30897;BME280;64229;52.246;21.054;2023-01-20T00:03:51;99854.00;;;1.72;100.00
30897;BME280;64229;52.246;21.054;2023-01-20T00:06:17;99866.16;;;1.73;100.00
30897;BME280;64229;52.246;21.054;2023-01-20T00:08:43;99861.16;;;1.65;100.00
30897;BME280;64229;52.246;21.054;2023-01-20T00:11:10;99866.06;;;1.62;100.00
30897;BME280;64229;52.246;21.054;2023-01-20T00:13:37;99876.41;;;1.57;100.00
30897;BME280;64229;52.246;21.054;2023-01-20T00:16:05;99878.66;;;1.53;100.00
30897;BME280;64229;52.246;21.054;2023-01-20T00:18:31;99886.59;;;1.47;100.00
30897;BME280;64229;52.246;21.054;2023-01-20T00:21:16;99882.81;;;1.42;100.00
30897;BME280;64229;52.246;21.054;2023-01-20T00:23:42;99882.59;;;1.44;100.00
30897;BME280;64229;52.246;21.054;2023-01-20T00:26:12;99894.94;;;1.43;100.00
30897;BME280;64229;52.246;21.054;2023-01-20T00:28:38;99899.34;;;1.50;100.00
30897;BME280;64229;52.246;21.054;2023-01-20T00:31:20;99903.84;;;1.42;100.00
30897;BME280;64229;52.246;21.054;2023-01-20T00:33:47;99907.09;;;1.38;100.00
30897;BME280;64229;52.246;21.054;2023-01-20T00:36:14;99910.94;;;1.42;100.00
30897;BME280;64229;52.246;21.054;2023-01-20T00:38:40;99902.34;;;1.28;100.00
30897;BME280;64229;52.246;21.054;2023-01-20T00:41:06;99920.63;;;1.41;100.00
30897;BME280;64229;52.246;21.054;2023-01-20T00:43:32;99923.88;;;1.37;100.00
30897;BME280;64229;52.246;21.054;2023-01-20T00:45:58;99920.47;;;1.36;100.00
30897;BME280;64229;52.246;21.054;2023-01-20T00:48:24;99936.25;;;1.36;100.00
30897;BME280;64229;52.246;21.054;2023-01-20T00:50:49;99926.81;;;1.29;100.00
30897;BME280;64229;52.246;21.054;2023-01-20T00:53:15;99930.97;;;1.36;100.00
30897;BME280;64229;52.246;21.054;2023-01-20T00:55:40;99928.22;;;1.25;100.00
30897;BME280;64229;52.246;21.054;2023-01-20T00:58:06;99937.56;;;1.21;100.00
30897;BME280;64229;52.246;21.054;2023-01-20T01:00:31;99946.03;;;1.23;100.00
30897;BME280;64229;52.246;21.054;2023-01-20T01:02:57;99949.03;;;1.26;100.00
30897;BME280;64229;52.246;21.054;2023-01-20T01:05:22;99945.03;;;1.24;100.00
30897;BME280;64229;52.246;21.054;2023-01-20T01:07:48;99956.75;;;1.28;100.00
30897;BME280;64229;52.246;21.054;2023-01-20T01:10:14;99945.00;;;1.30;100.00
30897;BME280;64229;52.246;21.054;2023-01-20T01:12:39;99946.59;;;1.31;100.00
30897;BME280;64229;52.246;21.054;2023-01-20T01:15:05;99950.03;;;1.32;100.00
30897;BME280;64229;52.246;21.054;2023-01-20T01:17:31;99935.72;;;1.28;100.00
30897;BME280;64229;52.246;21.054;2023-01-20T01:19:57;99941.78;;;1.28;100.00
30897;BME280;64229;52.246;21.054;2023-01-20T01:22:22;99948.63;;;1.29;100.00
30897;BME280;64229;52.246;21.054;2023-01-20T01:24:48;99951.06;;;1.31;100.00
30897;BME280;64229;52.246;21.054;2023-01-20T01:27:13;99957.34;;;1.30;100.00
30897;BME280;64229;52.246;21.054;2023-01-20T01:29:39;99959.16;;;1.29;100.00
30897;BME280;64229;52.246;21.054;2023-01-20T01:32:05;99964.22;;;1.24;100.00
30897;BME280;64229;52.246;21.054;2023-01-20T01:34:30;99971.66;;;1.34;100.00
30897;BME280;64229;52.246;21.054;2023-01-20T01:36:56;99964.94;;;1.38;100.00
30897;BME280;64229;52.246;21.054;2023-01-20T01:39:22;99965.84;;;1.25;100.00
30897;BME280;64229;52.246;21.054;2023-01-20T01:41:47;99978.38;;;1.30;100.00
30897;BME280;64229;52.246;21.054;2023-01-20T01:44:14;99971.69;;;1.27;100.00
30897;BME280;64229;52.246;21.054;2023-01-20T01:46:40;99978.19;;;1.25;100.00
30897;BME280;64229;52.246;21.054;2023-01-20T01:51:38;99974.59;;;1.19;100.00
30897;BME280;64229;52.246;21.054;2023-01-20T01:54:13;99975.38;;;1.20;100.00
30897;BME280;64229;52.246;21.054;2023-01-20T01:56:40;99971.31;;;1.24;100.00
30897;BME280;64229;52.246;21.054;2023-01-20T01:59:08;99951.75;;;1.13;100.00
30897;BME280;64229;52.246;21.054;2023-01-20T02:01:37;99966.06;;;1.24;100.00
30897;BME280;64229;52.246;21.054;2023-01-20T02:04:11;99967.66;;;1.25;100.00
30897;BME280;64229;52.246;21.054;2023-01-20T02:06:46;99965.63;;;1.27;100.00
30897;BME280;64229;52.246;21.054;2023-01-20T02:09:12;99969.13;;;1.21;100.00
30897;BME280;64229;52.246;21.054;2023-01-20T02:11:43;99979.84;;;1.19;100.00
30897;BME280;64229;52.246;21.054;2023-01-20T02:14:14;99974.31;;;1.27;100.00
30897;BME280;64229;52.246;21.054;2023-01-20T02:19:43;99971.28;;;1.30;100.00
30897;BME280;64229;52.246;21.054;2023-01-20T02:30:17;99980.09;;;1.42;100.00
30897;BME280;64229;52.246;21.054;2023-01-20T02:38:13;99995.31;;;1.34;100.00
30897;BME280;64229;52.246;21.054;2023-01-20T02:43:35;99995.50;;;1.39;100.00
30897;BME280;64229;52.246;21.054;2023-01-20T02:46:30;99988.59;;;1.38;100.00
30897;BME280;64229;52.246;21.054;2023-01-20T02:49:16;99981.34;;;1.40;100.00
30897;BME280;64229;52.246;21.054;2023-01-20T02:54:16;99962.38;;;1.31;100.00
30897;BME280;64229;52.246;21.054;2023-01-20T02:56:44;99976.09;;;1.40;100.00
30897;BME280;64229;52.246;21.054;2023-01-20T02:59:14;99981.56;;;1.38;100.00
30897;BME280;64229;52.246;21.054;2023-01-20T03:01:46;99972.47;;;1.34;100.00
30897;BME280;64229;52.246;21.054;2023-01-20T03:04:17;99972.03;;;1.37;100.00
30897;BME280;64229;52.246;21.054;2023-01-20T03:06:48;99967.41;;;1.33;100.00
30897;BME280;64229;52.246;21.054;2023-01-20T03:09:18;99963.44;;;1.24;100.00
30897;BME280;64229;52.246;21.054;2023-01-20T03:11:55;99975.31;;;1.33;100.00
30897;BME280;64229;52.246;21.054;2023-01-20T03:14:22;99977.56;;;1.29;100.00
30897;BME280;64229;52.246;21.054;2023-01-20T03:16:47;99988.59;;;1.38;100.00
30897;BME280;64229;52.246;21.054;2023-01-20T03:19:16;99990.44;;;1.37;100.00
30897;BME280;64229;52.246;21.054;2023-01-20T03:21:42;100001.38;;;1.34;100.00
30897;BME280;64229;52.246;21.054;2023-01-20T03:24:08;99988.69;;;1.25;100.00
30897;BME280;64229;52.246;21.054;2023-01-20T03:26:33;99997.38;;;1.32;100.00
30897;BME280;64229;52.246;21.054;2023-01-20T03:29:05;99992.59;;;1.15;100.00
30897;BME280;64229;52.246;21.054;2023-01-20T03:31:43;100003.25;;;1.27;100.00
30897;BME280;64229;52.246;21.054;2023-01-20T03:34:16;99990.72;;;1.29;100.00
30897;BME280;64229;52.246;21.054;2023-01-20T03:36:43;99994.72;;;1.32;100.00
30897;BME280;64229;52.246;21.054;2023-01-20T03:39:09;99998.72;;;1.41;100.00
30897;BME280;64229;52.246;21.054;2023-01-20T03:52:58;100025.53;;;1.56;100.00
30897;BME280;64229;52.246;21.054;2023-01-20T03:58:22;100036.09;;;1.50;100.00
30897;BME280;64229;52.246;21.054;2023-01-20T04:00:49;100040.97;;;1.46;100.00
30897;BME280;64229;52.246;21.054;2023-01-20T04:03:23;100046.81;;;1.48;100.00
30897;BME280;64229;52.246;21.054;2023-01-20T04:05:50;100047.84;;;1.47;100.00
30897;BME280;64229;52.246;21.054;2023-01-20T04:08:17;100054.91;;;1.47;100.00
30897;BME280;64229;52.246;21.054;2023-01-20T04:10:47;100059.22;;;1.41;100.00
30897;BME280;64229;52.246;21.054;2023-01-20T04:13:13;100072.16;;;1.42;100.00
30897;BME280;64229;52.246;21.054;2023-01-20T04:15:42;100073.53;;;1.45;100.00
30897;BME280;64229;52.246;21.054;2023-01-20T04:20:37;100069.06;;;1.52;100.00
30897;BME280;64229;52.246;21.054;2023-01-20T04:23:03;100073.13;;;1.48;100.00
30897;BME280;64229;52.246;21.054;2023-01-20T04:25:31;100074.00;;;1.35;100.00
30897;BME280;64229;52.246;21.054;2023-01-20T04:27:56;100082.69;;;1.36;100.00
30897;BME280;64229;52.246;21.054;2023-01-20T04:30:22;100101.50;;;1.39;100.00
30897;BME280;64229;52.246;21.054;2023-01-20T04:32:48;100098.59;;;1.54;100.00
30897;BME280;64229;52.246;21.054;2023-01-20T04:35:17;100099.41;;;1.55;100.00
30897;BME280;64229;52.246;21.054;2023-01-20T04:37:43;100101.38;;;1.59;100.00
30897;BME280;64229;52.246;21.054;2023-01-20T04:40:09;100105.59;;;1.67;100.00
30897;BME280;64229;52.246;21.054;2023-01-20T04:42:35;100099.84;;;1.45;100.00
30897;BME280;64229;52.246;21.054;2023-01-20T04:45:01;100121.03;;;1.57;100.00
30897;BME280;64229;52.246;21.054;2023-01-20T04:47:31;100103.06;;;1.47;100.00
30897;BME280;64229;52.246;21.054;2023-01-20T04:49:57;100116.19;;;1.54;100.00
30897;BME280;64229;52.246;21.054;2023-01-20T04:52:23;100117.22;;;1.46;100.00
30897;BME280;64229;52.246;21.054;2023-01-20T04:54:49;100122.44;;;1.59;100.00
30897;BME280;64229;52.246;21.054;2023-01-20T04:57:14;100125.84;;;1.66;100.00
30897;BME280;64229;52.246;21.054;2023-01-20T04:59:40;100126.84;;;1.72;100.00
30897;BME280;64229;52.246;21.054;2023-01-20T05:02:06;100129.47;;;1.72;100.00
30897;BME280;64229;52.246;21.054;2023-01-20T05:04:31;100142.34;;;1.80;100.00
30897;BME280;64229;52.246;21.054;2023-01-20T05:06:57;100134.13;;;1.70;100.00
30897;BME280;64229;52.246;21.054;2023-01-20T05:09:22;100132.47;;;1.76;100.00
30897;BME280;64229;52.246;21.054;2023-01-20T05:11:48;100143.78;;;1.83;100.00
30897;BME280;64229;52.246;21.054;2023-01-20T05:14:13;100139.94;;;1.79;100.00
30897;BME280;64229;52.246;21.054;2023-01-20T05:16:39;100143.44;;;1.72;100.00
30897;BME280;64229;52.246;21.054;2023-01-20T05:19:04;100142.84;;;1.70;100.00
30897;BME280;64229;52.246;21.054;2023-01-20T05:21:30;100147.44;;;1.82;100.00
30897;BME280;64229;52.246;21.054;2023-01-20T05:23:56;100148.66;;;1.79;100.00
30897;BME280;64229;52.246;21.054;2023-01-20T05:26:25;100149.06;;;1.76;100.00
30897;BME280;64229;52.246;21.054;2023-01-20T05:28:50;100164.41;;;1.86;100.00
30897;BME280;64229;52.246;21.054;2023-01-20T05:31:16;100163.38;;;1.87;100.00
30897;BME280;64229;52.246;21.054;2023-01-20T05:33:42;100163.75;;;1.90;100.00
30897;BME280;64229;52.246;21.054;2023-01-20T05:36:09;100177.19;;;1.82;100.00
30897;BME280;64229;52.246;21.054;2023-01-20T05:38:35;100181.44;;;1.83;100.00
30897;BME280;64229;52.246;21.054;2023-01-20T05:41:05;100178.75;;;1.90;100.00
30897;BME280;64229;52.246;21.054;2023-01-20T05:43:31;100182.41;;;1.89;100.00
30897;BME280;64229;52.246;21.054;2023-01-20T05:45:57;100185.22;;;1.94;100.00
30897;BME280;64229;52.246;21.054;2023-01-20T05:48:23;100196.72;;;1.99;100.00
30897;BME280;64229;52.246;21.054;2023-01-20T05:50:49;100201.22;;;1.92;100.00
30897;BME280;64229;52.246;21.054;2023-01-20T05:53:15;100210.91;;;1.98;100.00
30897;BME280;64229;52.246;21.054;2023-01-20T05:55:40;100210.06;;;2.05;100.00
30897;BME280;64229;52.246;21.054;2023-01-20T05:58:07;100223.81;;;2.13;100.00
30897;BME280;64229;52.246;21.054;2023-01-20T06:00:33;100223.19;;;2.11;100.00
30897;BME280;64229;52.246;21.054;2023-01-20T06:02:58;100238.81;;;2.13;100.00
30897;BME280;64229;52.246;21.054;2023-01-20T06:05:24;100239.41;;;2.08;100.00
30897;BME280;64229;52.246;21.054;2023-01-20T06:07:50;100246.47;;;2.14;100.00
30897;BME280;64229;52.246;21.054;2023-01-20T06:10:16;100263.47;;;2.18;100.00
30897;BME280;64229;52.246;21.054;2023-01-20T06:12:42;100264.50;;;2.11;100.00
30897;BME280;64229;52.246;21.054;2023-01-20T06:15:08;100276.63;;;2.18;100.00
30897;BME280;64229;52.246;21.054;2023-01-20T06:17:34;100277.81;;;2.22;100.00
30897;BME280;64229;52.246;21.054;2023-01-20T06:19:59;100286.72;;;2.28;100.00
30897;BME280;64229;52.246;21.054;2023-01-20T06:22:25;100286.13;;;2.26;100.00
30897;BME280;64229;52.246;21.054;2023-01-20T06:24:51;100294.41;;;2.29;100.00
30897;BME280;64229;52.246;21.054;2023-01-20T06:27:17;100296.59;;;2.32;100.00
30897;BME280;64229;52.246;21.054;2023-01-20T06:29:43;100301.50;;;2.29;100.00
30897;BME280;64229;52.246;21.054;2023-01-20T06:32:09;100313.63;;;2.37;100.00
30897;BME280;64229;52.246;21.054;2023-01-20T06:34:34;100314.78;;;2.47;100.00
30897;BME280;64229;52.246;21.054;2023-01-20T06:37:01;100318.59;;;2.51;100.00
30897;BME280;64229;52.246;21.054;2023-01-20T06:39:26;100330.84;;;2.39;100.00
30897;BME280;64229;52.246;21.054;2023-01-20T06:41:55;100324.31;;;2.42;100.00
30897;BME280;64229;52.246;21.054;2023-01-20T06:44:21;100319.81;;;2.55;98.44
30897;BME280;64229;52.246;21.054;2023-01-20T06:46:46;100332.56;;;2.58;98.19
30897;BME280;64229;52.246;21.054;2023-01-20T06:49:12;100334.97;;;2.60;98.04
30897;BME280;64229;52.246;21.054;2023-01-20T06:51:37;100343.69;;;2.60;98.30
30897;BME280;64229;52.246;21.054;2023-01-20T06:54:02;100336.22;;;2.57;99.18
30897;BME280;64229;52.246;21.054;2023-01-20T06:56:28;100336.38;;;2.63;98.07
30897;BME280;64229;52.246;21.054;2023-01-20T06:58:53;100337.19;;;2.63;98.11
30897;BME280;64229;52.246;21.054;2023-01-20T07:01:31;100335.13;;;2.65;97.94
30897;BME280;64229;52.246;21.054;2023-01-20T07:03:57;100335.19;;;2.58;97.80
30897;BME280;64229;52.246;21.054;2023-01-20T07:06:38;100342.44;;;2.70;97.62
30897;BME280;64229;52.246;21.054;2023-01-20T07:09:06;100345.44;;;2.73;97.04
30897;BME280;64229;52.246;21.054;2023-01-20T07:11:32;100342.66;;;2.68;97.22
30897;BME280;64229;52.246;21.054;2023-01-20T07:14:00;100347.28;;;2.73;97.00
30897;BME280;64229;52.246;21.054;2023-01-20T07:16:26;100352.16;;;2.69;97.21
30897;BME280;64229;52.246;21.054;2023-01-20T07:18:52;100349.97;;;2.66;97.02
30897;BME280;64229;52.246;21.054;2023-01-20T07:21:18;100357.25;;;2.64;96.86
30897;BME280;64229;52.246;21.054;2023-01-20T07:23:44;100356.88;;;2.60;97.08
30897;BME280;64229;52.246;21.054;2023-01-20T07:26:12;100363.97;;;2.60;97.88
30897;BME280;64229;52.246;21.054;2023-01-20T07:28:38;100364.78;;;2.60;97.65
30897;BME280;64229;52.246;21.054;2023-01-20T07:31:13;100378.53;;;2.69;97.29
30897;BME280;64229;52.246;21.054;2023-01-20T07:33:39;100375.66;;;2.71;97.82
30897;BME280;64229;52.246;21.054;2023-01-20T07:36:05;100367.16;;;2.69;97.42
30897;BME280;64229;52.246;21.054;2023-01-20T07:38:32;100376.63;;;2.76;97.97
30897;BME280;64229;52.246;21.054;2023-01-20T07:40:59;100381.91;;;2.76;97.49
30897;BME280;64229;52.246;21.054;2023-01-20T07:43:25;100382.75;;;2.77;97.35
30897;BME280;64229;52.246;21.054;2023-01-20T07:45:58;100374.56;;;2.85;95.81
30897;BME280;64229;52.246;21.054;2023-01-20T07:48:25;100371.13;;;2.84;96.63
30897;BME280;64229;52.246;21.054;2023-01-20T07:50:58;100378.00;;;2.85;95.47
30897;BME280;64229;52.246;21.054;2023-01-20T07:53:32;100378.66;;;2.81;96.18
30897;BME280;64229;52.246;21.054;2023-01-20T07:56:05;100377.63;;;2.82;95.86
30897;BME280;64229;52.246;21.054;2023-01-20T07:58:32;100380.06;;;2.83;96.69
30897;BME280;64229;52.246;21.054;2023-01-20T08:01:08;100379.44;;;2.88;97.44
30897;BME280;64229;52.246;21.054;2023-01-20T08:03:34;100363.63;;;2.88;95.71
30897;BME280;64229;52.246;21.054;2023-01-20T08:06:08;100372.00;;;2.78;96.81
30897;BME280;64229;52.246;21.054;2023-01-20T08:08:35;100372.16;;;2.83;97.33
30897;BME280;64229;52.246;21.054;2023-01-20T08:11:01;100370.06;;;2.92;97.53
30897;BME280;64229;52.246;21.054;2023-01-20T08:13:27;100382.16;;;3.06;96.21
30897;BME280;64229;52.246;21.054;2023-01-20T08:15:53;100373.97;;;3.14;95.78
30897;BME280;64229;52.246;21.054;2023-01-20T08:18:19;100380.25;;;3.20;94.29
30897;BME280;64229;52.246;21.054;2023-01-20T08:20:44;100372.69;;;3.24;93.94
30897;BME280;64229;52.246;21.054;2023-01-20T08:23:10;100382.44;;;3.23;93.40
30897;BME280;64229;52.246;21.054;2023-01-20T08:25:35;100392.34;;;3.28;93.32
30897;BME280;64229;52.246;21.054;2023-01-20T08:28:00;100379.22;;;3.21;94.29
30897;BME280;64229;52.246;21.054;2023-01-20T08:30:26;100387.06;;;3.28;94.48
30897;BME280;64229;52.246;21.054;2023-01-20T08:32:51;100392.09;;;3.36;92.98
30897;BME280;64229;52.246;21.054;2023-01-20T08:35:17;100382.81;;;3.27;93.92
30897;BME280;64229;52.246;21.054;2023-01-20T08:37:42;100376.91;;;3.31;93.62
30897;BME280;64229;52.246;21.054;2023-01-20T08:40:09;100381.31;;;3.37;94.06
30897;BME280;64229;52.246;21.054;2023-01-20T08:42:36;100379.22;;;3.46;94.03
30897;BME280;64229;52.246;21.054;2023-01-20T08:45:04;100378.78;;;3.49;93.57
30897;BME280;64229;52.246;21.054;2023-01-20T08:47:30;100380.22;;;3.52;93.63
30897;BME280;64229;52.246;21.054;2023-01-20T08:49:55;100391.56;;;3.52;91.69
30897;BME280;64229;52.246;21.054;2023-01-20T08:52:21;100393.41;;;3.52;92.37
30897;BME280;64229;52.246;21.054;2023-01-20T08:54:46;100399.31;;;3.47;93.82
30897;BME280;64229;52.246;21.054;2023-01-20T08:57:12;100392.41;;;3.46;92.76
30897;BME280;64229;52.246;21.054;2023-01-20T08:59:39;100397.59;;;3.34;91.88
30897;BME280;64229;52.246;21.054;2023-01-20T09:02:04;100403.19;;;3.44;90.50
30897;BME280;64229;52.246;21.054;2023-01-20T09:04:30;100402.00;;;3.65;88.23
30897;BME280;64229;52.246;21.054;2023-01-20T09:06:55;100403.41;;;3.68;87.25
30897;BME280;64229;52.246;21.054;2023-01-20T09:09:21;100396.81;;;3.77;87.67
30897;BME280;64229;52.246;21.054;2023-01-20T09:11:47;100393.38;;;3.76;89.29
30897;BME280;64229;52.246;21.054;2023-01-20T09:14:20;100395.31;;;3.88;88.71
30897;BME280;64229;52.246;21.054;2023-01-20T09:16:46;100391.84;;;3.87;88.50
30897;BME280;64229;52.246;21.054;2023-01-20T09:19:12;100407.72;;;4.05;86.22
30897;BME280;64229;52.246;21.054;2023-01-20T09:21:38;100414.47;;;4.01;87.25
30897;BME280;64229;52.246;21.054;2023-01-20T09:24:04;100412.84;;;4.00;86.74
30897;BME280;64229;52.246;21.054;2023-01-20T09:26:30;100416.75;;;3.98;86.87
30897;BME280;64229;52.246;21.054;2023-01-20T09:29:03;100429.63;;;3.88;84.86
30897;BME280;64229;52.246;21.054;2023-01-20T09:31:33;100428.50;;;3.77;87.11
30897;BME280;64229;52.246;21.054;2023-01-20T09:34:00;100432.84;;;3.40;85.53
30897;BME280;64229;52.246;21.054;2023-01-20T09:36:25;100428.34;;;3.15;87.44
30897;BME280;64229;52.246;21.054;2023-01-20T09:38:53;100436.03;;;3.17;88.58
30897;BME280;64229;52.246;21.054;2023-01-20T09:41:37;100427.38;;;3.10;88.73
30897;BME280;64229;52.246;21.054;2023-01-20T09:44:47;100443.78;;;3.43;87.81
30897;BME280;64229;52.246;21.054;2023-01-20T09:56:09;100442.56;;;3.14;88.94
30897;BME280;64229;52.246;21.054;2023-01-20T09:58:58;100451.06;;;3.16;90.33
30897;BME280;64229;52.246;21.054;2023-01-20T10:01:42;100438.94;;;3.09;91.01
30897;BME280;64229;52.246;21.054;2023-01-20T10:04:16;100449.91;;;3.37;90.00
30897;BME280;64229;52.246;21.054;2023-01-20T10:07:06;100464.03;;;3.18;89.81
30897;BME280;64229;52.246;21.054;2023-01-20T10:09:56;100459.16;;;3.22;89.12
30897;BME280;64229;52.246;21.054;2023-01-20T10:12:30;100431.78;;;3.16;90.11
30897;BME280;64229;52.246;21.054;2023-01-20T10:15:06;100454.09;;;3.20;90.49
30897;BME280;64229;52.246;21.054;2023-01-20T10:17:41;100453.66;;;3.23;90.55
30897;BME280;64229;52.246;21.054;2023-01-20T10:20:17;100447.81;;;3.21;91.40
30897;BME280;64229;52.246;21.054;2023-01-20T10:23:17;100446.34;;;3.25;90.47
30897;BME280;64229;52.246;21.054;2023-01-20T10:28:23;100451.53;;;3.38;90.80
30897;BME280;64229;52.246;21.054;2023-01-20T10:30:50;100454.28;;;3.50;88.49
30897;BME280;64229;52.246;21.054;2023-01-20T10:33:24;100459.41;;;3.45;88.70
30897;BME280;64229;52.246;21.054;2023-01-20T10:35:54;100462.41;;;3.48;87.95
30897;BME280;64229;52.246;21.054;2023-01-20T10:38:50;100459.72;;;3.30;89.06
30897;BME280;64229;52.246;21.054;2023-01-20T10:41:26;100462.06;;;3.38;88.87
30897;BME280;64229;52.246;21.054;2023-01-20T10:43:56;100466.41;;;3.26;88.28
30897;BME280;64229;52.246;21.054;2023-01-20T10:54:45;100481.91;;;3.47;87.68
30897;BME280;64229;52.246;21.054;2023-01-20T10:57:14;100486.91;;;3.62;87.63
30897;BME280;64229;52.246;21.054;2023-01-20T10:59:47;100478.38;;;3.60;87.03
30897;BME280;64229;52.246;21.054;2023-01-20T11:02:18;100481.56;;;3.69;87.40
30897;BME280;64229;52.246;21.054;2023-01-20T11:04:50;100484.75;;;3.77;87.72
30897;BME280;64229;52.246;21.054;2023-01-20T11:07:17;100470.78;;;3.70;87.57
30897;BME280;64229;52.246;21.054;2023-01-20T11:09:45;100477.91;;;3.70;86.26
30897;BME280;64229;52.246;21.054;2023-01-20T11:12:15;100466.53;;;3.69;87.12
30897;BME280;64229;52.246;21.054;2023-01-20T11:14:42;100467.41;;;3.63;88.37
30897;BME280;64229;52.246;21.054;2023-01-20T11:17:16;100471.91;;;3.81;86.78
30897;BME280;64229;52.246;21.054;2023-01-20T11:22:21;100471.28;;;3.86;87.10
30897;BME280;64229;52.246;21.054;2023-01-20T11:24:52;100481.88;;;3.79;87.36
30897;BME280;64229;52.246;21.054;2023-01-20T11:27:22;100486.59;;;3.77;87.03
30897;BME280;64229;52.246;21.054;2023-01-20T11:29:51;100494.13;;;3.73;87.66
30897;BME280;64229;52.246;21.054;2023-01-20T11:34:50;100486.84;;;3.69;86.84
30897;BME280;64229;52.246;21.054;2023-01-20T11:37:21;100498.16;;;3.76;87.59
30897;BME280;64229;52.246;21.054;2023-01-20T11:42:23;100500.44;;;3.72;87.86
30897;BME280;64229;52.246;21.054;2023-01-20T11:44:51;100510.56;;;3.75;87.44
30897;BME280;64229;52.246;21.054;2023-01-20T11:47:23;100502.41;;;3.52;86.89
30897;BME280;64229;52.246;21.054;2023-01-20T11:52:40;100508.09;;;3.49;88.54
30897;BME280;64229;52.246;21.054;2023-01-20T11:55:21;100517.69;;;3.43;88.70
30897;BME280;64229;52.246;21.054;2023-01-20T12:03:20;100516.31;;;3.28;90.37
30897;BME280;64229;52.246;21.054;2023-01-20T12:05:50;100526.03;;;3.40;89.64
30897;BME280;64229;52.246;21.054;2023-01-20T12:08:25;100526.19;;;3.45;89.29
30897;BME280;64229;52.246;21.054;2023-01-20T12:10:53;100519.91;;;3.40;90.04
30897;BME280;64229;52.246;21.054;2023-01-20T12:13:31;100526.03;;;3.40;89.48
30897;BME280;64229;52.246;21.054;2023-01-20T12:16:18;100532.72;;;3.36;90.07
30897;BME280;64229;52.246;21.054;2023-01-20T12:18:47;100532.22;;;3.21;90.93
30897;BME280;64229;52.246;21.054;2023-01-20T12:21:16;100531.25;;;3.09;91.06
30897;BME280;64229;52.246;21.054;2023-01-20T12:23:52;100541.44;;;2.99;90.53
30897;BME280;64229;52.246;21.054;2023-01-20T12:26:21;100543.66;;;2.95;91.99
30897;BME280;64229;52.246;21.054;2023-01-20T12:29:18;100550.81;;;2.75;92.28
30897;BME280;64229;52.246;21.054;2023-01-20T12:31:47;100549.22;;;2.67;93.18
30897;BME280;64229;52.246;21.054;2023-01-20T12:34:29;100555.09;;;2.63;93.09
30897;BME280;64229;52.246;21.054;2023-01-20T12:40:00;100551.06;;;2.53;94.18
30897;BME280;64229;52.246;21.054;2023-01-20T12:52:08;100553.28;;;2.70;92.00
30897;BME280;64229;52.246;21.054;2023-01-20T12:54:41;100551.03;;;2.73;92.82
30897;BME280;64229;52.246;21.054;2023-01-20T13:10:52;100543.59;;;3.08;89.53
30897;BME280;64229;52.246;21.054;2023-01-20T13:18:43;100552.78;;;2.93;88.51
30897;BME280;64229;52.246;21.054;2023-01-20T13:21:13;100551.19;;;2.92;89.26
30897;BME280;64229;52.246;21.054;2023-01-20T13:23:46;100555.22;;;2.94;89.74
30897;BME280;64229;52.246;21.054;2023-01-20T13:26:12;100559.09;;;2.85;90.57
30897;BME280;64229;52.246;21.054;2023-01-20T13:28:49;100560.88;;;2.98;90.35
30897;BME280;64229;52.246;21.054;2023-01-20T13:45:14;100547.16;;;2.82;87.98
30897;BME280;64229;52.246;21.054;2023-01-20T13:50:45;100551.63;;;2.82;89.76
30897;BME280;64229;52.246;21.054;2023-01-20T13:53:13;100545.53;;;2.81;89.96
30897;BME280;64229;52.246;21.054;2023-01-20T14:00:39;100528.38;;;2.52;90.74
30897;BME280;64229;52.246;21.054;2023-01-20T14:05:53;100541.75;;;2.44;90.75
30897;BME280;64229;52.246;21.054;2023-01-20T14:08:20;100560.41;;;2.43;90.82
30897;BME280;64229;52.246;21.054;2023-01-20T14:10:45;100548.88;;;2.37;91.06
30897;BME280;64229;52.246;21.054;2023-01-20T14:13:18;100559.81;;;2.34;91.94
30897;BME280;64229;52.246;21.054;2023-01-20T14:15:51;100563.66;;;2.45;90.72
30897;BME280;64229;52.246;21.054;2023-01-20T14:18:20;100560.19;;;2.44;91.00
30897;BME280;64229;52.246;21.054;2023-01-20T14:21:00;100562.63;;;2.39;90.21
30897;BME280;64229;52.246;21.054;2023-01-20T14:23:33;100570.13;;;2.42;90.89
30897;BME280;64229;52.246;21.054;2023-01-20T14:26:04;100573.38;;;2.38;90.73
30897;BME280;64229;52.246;21.054;2023-01-20T14:28:30;100579.66;;;2.37;91.39
30897;BME280;64229;52.246;21.054;2023-01-20T14:31:29;100586.97;;;2.35;90.99
30897;BME280;64229;52.246;21.054;2023-01-20T14:33:58;100584.50;;;2.33;91.44
30897;BME280;64229;52.246;21.054;2023-01-20T14:36:28;100597.91;;;2.38;91.46
30897;BME280;64229;52.246;21.054;2023-01-20T14:38:56;100592.84;;;2.37;91.30
30897;BME280;64229;52.246;21.054;2023-01-20T14:41:42;100599.94;;;2.36;91.72
30897;BME280;64229;52.246;21.054;2023-01-20T14:44:21;100603.97;;;2.32;92.14
30897;BME280;64229;52.246;21.054;2023-01-20T14:46:51;100606.41;;;2.33;91.90
30897;BME280;64229;52.246;21.054;2023-01-20T14:49:19;100603.97;;;2.32;93.01
30897;BME280;64229;52.246;21.054;2023-01-20T14:51:46;100606.00;;;2.37;92.88
30897;BME280;64229;52.246;21.054;2023-01-20T14:57:47;100613.91;;;2.43;92.45
30897;BME280;64229;52.246;21.054;2023-01-20T15:00:10;100624.03;;;2.46;92.39
30897;BME280;64229;52.246;21.054;2023-01-20T15:02:37;100631.13;;;2.46;92.33
30897;BME280;64229;52.246;21.054;2023-01-20T15:08:17;100643.88;;;2.42;92.09
30897;BME280;64229;52.246;21.054;2023-01-20T15:10:43;100650.19;;;2.41;92.90
30897;BME280;64229;52.246;21.054;2023-01-20T15:13:26;100636.19;;;2.41;92.02
30897;BME280;64229;52.246;21.054;2023-01-20T15:18:39;100644.09;;;2.41;93.01
30897;BME280;64229;52.246;21.054;2023-01-20T15:21:26;100639.63;;;2.41;92.07